Subpeak Weather - Last 24 Hours


View Last Hour    View Last 24 Hours

Time
Avg. Air Temp
Dew Point
Avg. Rel Humidity
Avg. 2 Min Wind Speed
Max Gust Velocity
MGV Time
MGV Direction
Avg. Spot Wind Velocity
2013-03-19 08:00:00-13° C-15° C85%6 km/h0 km/hN0 km/h
2013-03-19 07:00:00-13° C-15° C85%13 km/h18 km/h2013-03-19 06:44:10W15 km/h
2013-03-19 06:00:00-13° C-15° C85%11 km/h23 km/h2013-03-19 05:15:10NW16 km/h
2013-03-19 05:00:00-13° C-15° C85%16 km/h21 km/h2013-03-19 04:04:10NW16 km/h
2013-03-19 04:00:00-13° C-15° C85%14 km/h30 km/h2013-03-19 03:16:10N20 km/h
2013-03-19 03:00:00-13° C-15° C85%22 km/h34 km/h2013-03-19 02:03:10N24 km/h
2013-03-19 02:00:00-13° C-15° C85%21 km/h30 km/h2013-03-19 01:47:10NW22 km/h
2013-03-19 01:00:00-14° C-16° C84%24 km/h33 km/h2013-03-19 00:50:10NW23 km/h
2013-03-19 00:00:00-14° C-16° C84%19 km/h26 km/h2013-03-18 23:18:10W19 km/h
2013-03-18 23:00:00-14° C-16° C84%20 km/h25 km/h2013-03-18 22:55:10NW19 km/h
2013-03-18 22:00:00-14° C-16° C84%19 km/h24 km/h2013-03-18 21:01:00NW17 km/h
2013-03-18 21:00:00-14° C-16° C84%18 km/h24 km/h2013-03-18 20:20:10N17 km/h
2013-03-18 20:00:00-13° C-15° C85%17 km/h26 km/h2013-03-18 19:47:10N16 km/h
2013-03-18 19:00:00-13° C-16° C84%14 km/h24 km/h2013-03-18 18:20:10N15 km/h
2013-03-18 18:00:00-12° C-14° C86%11 km/h23 km/h2013-03-18 17:03:10N11 km/h
2013-03-18 17:00:00-12° C-14° C85%14 km/h24 km/h2013-03-18 16:29:10N15 km/h
2013-03-18 16:00:00-13° C-14° C85%12 km/h36 km/h2013-03-18 15:30:10N13 km/h
2013-03-18 15:00:00-13° C-15° C85%7 km/h28 km/h2013-03-18 14:42:10SE13 km/h
2013-03-18 14:00:00-12° C-14° C85%23 km/h43 km/h2013-03-18 13:36:10N24 km/h
2013-03-18 13:00:00-12° C-14° C85%22 km/h30 km/h2013-03-18 12:03:10NW21 km/h
2013-03-18 12:00:00-12° C-14° C86%15 km/h17 km/h2013-03-18 11:35:10N14 km/h
2013-03-18 11:00:00-12° C-14° C86%14 km/h16 km/h2013-03-18 10:59:10N11 km/h
2013-03-18 10:00:00-13° C-14° C85%9 km/h15 km/h2013-03-18 09:03:10N10 km/h
2013-03-18 09:00:00-13° C-15° C85%12 km/h15 km/h2013-03-18 08:35:10NW11 km/h